Meat Camp, North Carolina
Current Conditions -  °F | °C
As of 11:55 AM on Friday 28 Nov 2014 (Local Time) from KTNB Reporting Station
Clear Clear  
Wind Chill: 14°   Ceiling: Unl
Heat Index: 26°   Visibility: 10mi
Dew Point: 15°   Wind: 16mph
Humidity: 64%   Direction: 310°NW
Pressure: 30.25"   Gusts: 21mph
Location:  36.2085°N, 81.6605°W
Report Text: KTNB 281655Z AUTO 31014G18KT 10SM CLR M03/M09 A3025 RMK AO2 T10331092
Loading
Personal Weather Stations






























Interactive Weather Map New forecast layout! Learn more

10-Day Weather Forecast

Advertisements
Track Severe Weather on mobile